createdAt,value
2018-02-21T00:02:11.797Z,45.40
2018-02-21T00:04:40.062Z,45.40
2018-02-21T00:07:08.364Z,45.60
2018-02-21T00:09:36.645Z,45.60
2018-02-21T00:12:06.187Z,45.50
2018-02-21T00:14:35.214Z,45.50
2018-02-21T00:17:03.574Z,45.50
2018-02-21T00:19:31.856Z,45.60
2018-02-21T00:22:00.114Z,45.70
2018-02-21T00:24:29.180Z,45.70
2018-02-21T00:26:58.222Z,45.60
2018-02-21T00:29:26.530Z,45.60
2018-02-21T00:31:54.803Z,45.60
2018-02-21T00:34:23.364Z,45.70
2018-02-21T00:36:51.630Z,45.80
2018-02-21T00:39:19.971Z,45.80
2018-02-21T00:41:48.242Z,45.70
2018-02-21T00:44:16.521Z,46.30
2018-02-21T00:46:44.842Z,45.70
2018-02-21T00:49:13.109Z,45.80
2018-02-21T00:51:41.420Z,45.80
2018-02-21T00:54:09.694Z,45.80
2018-02-21T00:56:38.761Z,45.90
2018-02-21T00:59:07.032Z,45.80
2018-02-21T01:01:35.309Z,45.80
2018-02-21T01:04:04.540Z,45.80
2018-02-21T01:06:32.830Z,45.80
2018-02-21T01:09:02.045Z,45.90
2018-02-21T01:11:30.368Z,45.90
2018-02-21T01:13:58.662Z,46.10
2018-02-21T01:16:27.543Z,46.10
2018-02-21T01:18:56.049Z,46.10
2018-02-21T01:21:24.316Z,46.10
2018-02-21T01:23:52.633Z,46.10
2018-02-21T01:26:22.350Z,46.20
2018-02-21T01:28:51.114Z,46.30
2018-02-21T01:31:19.414Z,46.70
2018-02-21T01:33:47.692Z,46.80
2018-02-21T01:36:17.904Z,46.80
2018-02-21T01:38:46.168Z,46.80
2018-02-21T01:41:14.499Z,46.80
2018-02-21T01:43:43.521Z,46.80
2018-02-21T01:46:11.818Z,46.80
2018-02-21T01:48:40.102Z,46.80
2018-02-21T01:51:08.413Z,46.80
2018-02-21T01:53:37.521Z,46.70
2018-02-21T01:56:05.790Z,47.00
2018-02-21T01:58:35.901Z,47.00
2018-02-21T02:01:04.158Z,47.10
2018-02-21T02:03:32.421Z,47.10
2018-02-21T02:06:00.726Z,47.00
2018-02-21T02:08:29.242Z,47.00
2018-02-21T02:10:58.306Z,47.10
2018-02-21T02:13:26.576Z,47.10
2018-02-21T02:15:54.860Z,47.10
2018-02-21T02:18:23.146Z,47.10
2018-02-21T02:20:52.332Z,47.10
2018-02-21T02:23:20.608Z,47.80
2018-02-21T02:25:48.994Z,47.20
2018-02-21T02:28:17.310Z,47.10
2018-02-21T02:30:46.336Z,47.30
2018-02-21T02:33:14.999Z,47.10
2018-02-21T02:35:43.258Z,47.20
2018-02-21T02:38:24.074Z,47.30
2018-02-21T02:40:52.354Z,47.30
2018-02-21T02:43:20.616Z,47.40
2018-02-21T02:45:48.930Z,47.50
2018-02-21T02:48:17.213Z,47.70
2018-02-21T02:50:45.513Z,47.50
2018-02-21T02:53:14.567Z,48.30
2018-02-21T02:55:42.817Z,47.60
2018-02-21T02:58:11.106Z,47.60
2018-02-21T03:00:39.375Z,47.60
2018-02-21T03:03:07.996Z,47.70
2018-02-21T03:05:36.292Z,47.70
2018-02-21T03:08:04.544Z,47.60
2018-02-21T03:10:32.863Z,47.60
2018-02-21T03:13:02.317Z,47.60
2018-02-21T03:15:30.593Z,47.60
2018-02-21T03:17:58.885Z,47.70
2018-02-21T03:20:27.158Z,47.60
2018-02-21T03:22:55.424Z,47.60
2018-02-21T03:25:23.715Z,47.50
2018-02-21T03:27:51.984Z,47.60
2018-02-21T03:30:20.306Z,47.60
2018-02-21T03:32:49.364Z,47.60
2018-02-21T03:35:17.669Z,47.60
2018-02-21T03:37:46.613Z,47.50
2018-02-21T03:40:14.922Z,47.70
2018-02-21T03:42:43.186Z,47.60
2018-02-21T03:45:11.447Z,47.60
2018-02-21T03:47:39.727Z,47.60
2018-02-21T03:50:08.018Z,47.60
2018-02-21T03:52:36.321Z,47.60
2018-02-21T03:55:04.593Z,47.50
2018-02-21T03:57:32.895Z,47.50
2018-02-21T04:00:01.173Z,47.50
2018-02-21T04:02:30.251Z,47.50
2018-02-21T04:04:58.518Z,47.50
2018-02-21T04:07:26.793Z,47.60
2018-02-21T04:09:55.078Z,47.50
2018-02-21T04:12:23.347Z,47.50
2018-02-21T04:14:51.643Z,47.60
2018-02-21T04:17:19.935Z,47.60
2018-02-21T04:19:48.220Z,47.70
2018-02-21T04:22:17.270Z,47.70
2018-02-21T04:24:46.020Z,47.70
2018-02-21T04:27:14.285Z,47.70
2018-02-21T04:29:43.329Z,47.70
2018-02-21T04:32:11.630Z,47.70
2018-02-21T04:34:39.907Z,47.70
2018-02-21T04:37:08.205Z,47.70
2018-02-21T04:39:37.256Z,47.70
2018-02-21T04:42:05.588Z,47.70
2018-02-21T04:44:34.624Z,47.80
2018-02-21T04:47:02.896Z,47.70
2018-02-21T04:49:31.182Z,47.80
2018-02-21T04:51:59.464Z,47.90
2018-02-21T05:07:49.896Z,47.90
2018-02-21T05:10:18.215Z,47.80
2018-02-21T05:12:46.497Z,48.00
2018-02-21T05:15:15.562Z,48.50
2018-02-21T05:17:44.603Z,48.00
2018-02-21T05:20:14.008Z,48.00
2018-02-21T05:22:42.304Z,48.00
2018-02-21T05:25:10.593Z,48.00
2018-02-21T05:27:38.872Z,48.00
2018-02-21T05:30:07.148Z,48.10
2018-02-21T05:32:35.436Z,48.00
2018-02-21T05:35:04.489Z,48.10
2018-02-21T05:37:32.782Z,48.10
2018-02-21T05:40:01.055Z,48.10
2018-02-21T05:42:29.773Z,48.10
2018-02-21T05:44:58.035Z,48.10
2018-02-21T05:47:26.301Z,48.40
2018-02-21T05:49:54.593Z,48.10
2018-02-21T05:52:22.878Z,48.00
2018-02-21T05:54:51.185Z,48.20
2018-02-21T05:57:19.469Z,48.30
2018-02-21T05:59:47.792Z,48.50
2018-02-21T06:02:16.049Z,48.50
2018-02-21T06:04:44.324Z,48.70
2018-02-21T06:07:12.636Z,48.80
2018-02-21T06:09:40.955Z,48.90
2018-02-21T06:12:09.251Z,49.00
2018-02-21T06:14:37.556Z,49.00
2018-02-21T06:17:05.834Z,49.00
2018-02-21T06:19:34.416Z,49.00
2018-02-21T06:22:02.724Z,49.10
2018-02-21T06:24:31.783Z,49.50
2018-02-21T06:27:00.073Z,49.20
2018-02-21T06:29:28.337Z,49.10
2018-02-21T06:31:56.646Z,49.30
2018-02-21T06:34:24.907Z,49.30
2018-02-21T06:36:53.197Z,49.30
2018-02-21T06:39:21.463Z,49.50
2018-02-21T06:41:50.112Z,49.60
2018-02-21T06:44:18.368Z,49.50
2018-02-21T06:46:46.660Z,49.60
2018-02-21T06:49:14.944Z,49.70
2018-02-21T06:51:43.216Z,49.70
2018-02-21T06:54:11.507Z,49.60
2018-02-21T06:56:39.780Z,49.60
2018-02-21T06:59:08.070Z,49.60
2018-02-21T07:01:36.361Z,49.70
2018-02-21T07:04:04.630Z,49.80
2018-02-21T07:06:32.938Z,49.80
2018-02-21T07:09:01.198Z,49.90
2018-02-21T07:11:29.508Z,49.90
2018-02-21T07:13:57.774Z,49.80
2018-02-21T07:16:26.087Z,49.80
2018-02-21T07:18:54.353Z,49.90
2018-02-21T07:21:23.415Z,49.90
2018-02-21T07:23:51.684Z,49.90
2018-02-21T07:26:19.998Z,49.90
2018-02-21T07:28:48.287Z,50.00
2018-02-21T07:31:16.991Z,50.10
2018-02-21T07:33:45.757Z,50.00
2018-02-21T07:36:14.795Z,50.10
2018-02-21T07:38:43.625Z,50.10
2018-02-21T07:41:11.889Z,50.10
2018-02-21T07:43:40.245Z,50.00
2018-02-21T07:46:08.506Z,50.10
2018-02-21T07:48:36.877Z,50.20
2018-02-21T07:51:05.211Z,50.30
2018-02-21T07:53:34.283Z,50.30
2018-02-21T07:56:02.597Z,50.30
2018-02-21T07:58:30.886Z,50.20
2018-02-21T08:01:00.025Z,50.30
2018-02-21T08:03:29.849Z,50.20
2018-02-21T08:05:58.841Z,50.00
2018-02-21T08:08:27.120Z,50.10
2018-02-21T08:10:55.423Z,50.20
2018-02-21T08:13:23.679Z,50.30
2018-02-21T08:15:51.960Z,50.20
2018-02-21T08:18:20.258Z,50.20
2018-02-21T08:20:48.566Z,50.30
2018-02-21T08:23:18.817Z,50.30
2018-02-21T08:25:47.072Z,50.70
2018-02-21T08:28:15.410Z,50.50
2018-02-21T08:30:47.346Z,50.40
2018-02-21T08:33:15.646Z,50.30
2018-02-21T08:35:45.429Z,50.20
2018-02-21T08:38:13.959Z,50.10
2018-02-21T08:40:42.612Z,50.20
2018-02-21T08:43:10.906Z,50.20
2018-02-21T08:45:39.243Z,50.30
2018-02-21T08:48:09.311Z,50.40
2018-02-21T08:50:37.659Z,51.00
2018-02-21T08:53:05.928Z,50.40
2018-02-21T08:55:34.855Z,50.40
2018-02-21T08:58:03.125Z,50.30
2018-02-21T09:00:31.399Z,50.30
2018-02-21T09:02:59.713Z,50.40
2018-02-21T09:05:28.758Z,50.30
2018-02-21T09:07:57.101Z,50.30
2018-02-21T09:10:25.402Z,50.30
2018-02-21T09:12:54.458Z,50.20
2018-02-21T09:15:22.810Z,50.20
2018-02-21T09:17:51.403Z,50.40
2018-02-21T09:20:19.691Z,51.10
2018-02-21T09:22:47.972Z,50.60
2018-02-21T09:25:16.292Z,50.50
2018-02-21T09:27:44.566Z,50.40
2018-02-21T09:30:12.864Z,50.40
2018-02-21T09:32:42.866Z,49.90
2018-02-21T09:35:11.173Z,49.70
2018-02-21T09:37:39.482Z,49.60
2018-02-21T09:40:07.899Z,49.70
2018-02-21T09:42:36.282Z,50.00
2018-02-21T09:45:04.617Z,50.10
2018-02-21T09:47:32.919Z,50.10
2018-02-21T09:50:01.201Z,49.90
2018-02-21T09:52:29.527Z,49.90
2018-02-21T09:54:57.881Z,50.00
2018-02-21T09:57:26.209Z,49.70
2018-02-21T09:59:54.578Z,49.80
2018-02-21T10:02:22.918Z,49.90
2018-02-21T10:04:51.174Z,50.00
2018-02-21T10:07:19.513Z,50.10
2018-02-21T10:09:48.009Z,49.90
2018-02-21T10:12:16.329Z,49.90
2018-02-21T10:14:44.623Z,50.00
2018-02-21T10:17:12.916Z,50.10
2018-02-21T10:19:42.054Z,50.40
2018-02-21T10:22:11.906Z,49.70
2018-02-21T10:24:40.264Z,49.70
2018-02-21T10:27:09.292Z,49.50
2018-02-21T10:29:37.982Z,49.50
2018-02-21T10:32:06.271Z,49.70
2018-02-21T10:34:34.582Z,49.60
2018-02-21T10:37:02.912Z,49.50
2018-02-21T10:39:31.201Z,49.50
2018-02-21T10:42:00.357Z,49.50
2018-02-21T10:44:28.647Z,49.40
2018-02-21T10:46:56.965Z,49.50
2018-02-21T10:49:25.227Z,49.50
2018-02-21T10:51:53.520Z,49.20
2018-02-21T10:54:21.796Z,48.90
2018-02-21T10:56:50.109Z,49.00
2018-02-21T10:59:20.280Z,48.90
2018-02-21T11:01:49.432Z,48.30
2018-02-21T11:04:18.096Z,48.20
2018-02-21T11:06:46.367Z,47.90
2018-02-21T11:09:14.755Z,48.00
2018-02-21T11:11:43.032Z,48.10
2018-02-21T11:14:11.377Z,47.90
2018-02-21T11:16:39.645Z,47.90
2018-02-21T11:19:07.958Z,47.70
2018-02-21T11:21:36.276Z,47.60
2018-02-21T11:24:05.366Z,47.60
2018-02-21T11:26:34.447Z,47.70
2018-02-21T11:29:02.788Z,47.70
2018-02-21T11:31:31.085Z,47.50
2018-02-21T11:33:59.366Z,47.50
2018-02-21T11:36:27.657Z,47.50
2018-02-21T11:38:55.934Z,47.30
2018-02-21T11:41:24.220Z,46.90
2018-02-21T11:43:52.499Z,46.60
2018-02-21T11:46:20.873Z,45.70
2018-02-21T11:48:49.148Z,45.50
2018-02-21T11:51:17.461Z,45.90
2018-02-21T11:53:45.745Z,46.60
2018-02-21T11:56:14.009Z,46.90
2018-02-21T11:58:42.319Z,46.90
2018-02-21T12:01:12.498Z,46.50
2018-02-21T12:03:40.790Z,45.20
2018-02-21T12:06:09.069Z,44.10
2018-02-21T12:08:37.378Z,43.20
2018-02-21T12:11:05.689Z,42.30
2018-02-21T12:13:33.988Z,40.80
2018-02-21T12:16:03.091Z,37.90
2018-02-21T12:18:31.572Z,37.90
2018-02-21T12:21:00.629Z,36.10
2018-02-21T12:23:28.933Z,36.00
2018-02-21T12:25:57.214Z,35.90
2018-02-21T12:28:25.544Z,35.40
2018-02-21T12:30:53.859Z,34.40
2018-02-21T12:33:22.151Z,32.50
2018-02-21T12:35:51.211Z,30.60
2018-02-21T12:38:19.487Z,30.50
2018-02-21T12:40:53.324Z,31.10
2018-02-21T12:43:22.797Z,30.40
2018-02-21T12:45:51.101Z,29.30
2018-02-21T12:48:19.369Z,28.40
2018-02-21T12:50:47.702Z,28.90
2018-02-21T12:53:15.976Z,30.00
2018-02-21T12:55:44.264Z,28.50
2018-02-21T12:58:13.285Z,28.30
2018-02-21T13:00:41.568Z,28.40
2018-02-21T13:03:10.644Z,28.20
2018-02-21T13:05:38.927Z,28.20
2018-02-21T13:08:07.242Z,27.40
2018-02-21T13:10:35.517Z,26.70
2018-02-21T13:13:03.829Z,26.60
2018-02-21T13:15:32.117Z,26.60
2018-02-21T13:18:01.024Z,26.40
2018-02-21T13:20:29.303Z,26.20
2018-02-21T13:22:57.603Z,26.20
2018-02-21T13:25:25.882Z,25.60
2018-02-21T13:27:54.157Z,25.10
2018-02-21T13:30:22.481Z,25.10
2018-02-21T13:32:52.361Z,25.50
2018-02-21T13:35:20.724Z,25.50
2018-02-21T13:37:49.036Z,25.80
2018-02-21T13:40:17.301Z,25.60
2018-02-21T13:42:45.882Z,26.10
2018-02-21T13:45:14.358Z,26.30
2018-02-21T13:47:43.036Z,25.40
2018-02-21T13:50:11.277Z,25.40
2018-02-21T13:52:39.584Z,25.70
2018-02-21T13:55:07.881Z,26.40
2018-02-21T13:57:36.172Z,26.90
2018-02-21T14:00:04.471Z,26.90
2018-02-21T14:02:33.539Z,27.00
2018-02-21T14:05:01.823Z,27.00
2018-02-21T14:07:30.139Z,28.00
2018-02-21T14:09:58.436Z,28.60
2018-02-21T14:12:26.731Z,28.80
2018-02-21T14:14:55.040Z,29.20
2018-02-21T14:17:23.313Z,29.50
2018-02-21T14:19:51.616Z,29.80
2018-02-21T14:22:20.657Z,30.00
2018-02-21T14:24:48.953Z,30.00
2018-02-21T14:27:17.254Z,30.10
2018-02-21T14:29:47.153Z,30.10
2018-02-21T14:32:15.467Z,30.10
2018-02-21T14:34:44.523Z,30.20
2018-02-21T14:37:16.682Z,30.20
2018-02-21T14:39:45.745Z,30.60
2018-02-21T14:42:14.046Z,30.30
2018-02-21T14:44:42.376Z,30.20
2018-02-21T14:47:11.481Z,30.50
2018-02-21T14:49:39.747Z,30.50
2018-02-21T14:52:09.124Z,30.60
2018-02-21T14:54:37.394Z,30.60
2018-02-21T14:57:05.759Z,30.80
2018-02-21T14:59:34.049Z,31.00
2018-02-21T15:02:02.338Z,31.30
2018-02-21T15:04:30.639Z,31.50
2018-02-21T15:06:59.685Z,31.90
2018-02-21T15:09:29.271Z,31.90
2018-02-21T15:11:57.626Z,31.80
2018-02-21T15:14:25.966Z,32.00
2018-02-21T15:16:54.267Z,32.00
2018-02-21T15:19:22.538Z,32.20
2018-02-21T15:21:51.118Z,32.10
2018-02-21T15:24:19.417Z,32.20
2018-02-21T15:26:47.671Z,32.40
2018-02-21T15:29:15.955Z,32.60
2018-02-21T15:31:44.254Z,32.70
2018-02-21T15:34:12.612Z,32.80
2018-02-21T15:36:41.631Z,32.80
2018-02-21T15:39:09.923Z,32.80
2018-02-21T15:41:38.946Z,33.00
2018-02-21T15:44:07.521Z,32.90
2018-02-21T15:46:35.810Z,33.00
2018-02-21T15:49:04.090Z,32.90
2018-02-21T15:51:32.388Z,32.90
2018-02-21T15:54:00.665Z,33.10
2018-02-21T15:56:28.971Z,33.10
2018-02-21T15:58:57.327Z,33.10
2018-02-21T16:01:25.918Z,33.00
2018-02-21T16:03:54.191Z,33.80
2018-02-21T16:06:22.485Z,33.20
2018-02-21T16:11:48.540Z,33.20
2018-02-21T16:14:17.087Z,33.10
2018-02-21T16:16:45.384Z,33.10
2018-02-21T16:19:14.027Z,33.30
2018-02-21T16:21:42.317Z,33.30
2018-02-21T16:24:10.698Z,33.40
2018-02-21T16:26:39.002Z,33.50
2018-02-21T16:29:07.269Z,33.40
2018-02-21T16:31:35.577Z,33.60
2018-02-21T16:34:03.940Z,33.50
2018-02-21T16:36:32.496Z,34.00
2018-02-21T16:39:00.766Z,33.60
2018-02-21T16:41:29.042Z,33.60
2018-02-21T16:43:57.352Z,33.70
2018-02-21T16:46:25.632Z,33.70
2018-02-21T16:48:54.774Z,33.80
2018-02-21T16:51:23.812Z,34.00
2018-02-21T16:53:57.852Z,34.00
2018-02-21T16:56:26.960Z,34.80
2018-02-21T16:58:55.537Z,34.10
2018-02-21T17:01:24.642Z,34.10
2018-02-21T17:03:53.792Z,34.20
2018-02-21T17:06:23.646Z,34.20
2018-02-21T17:08:53.251Z,34.20
2018-02-21T17:11:21.542Z,34.20
2018-02-21T17:13:50.470Z,34.20
2018-02-21T17:16:19.069Z,34.30
2018-02-21T17:18:47.343Z,34.40
2018-02-21T17:21:15.707Z,34.40
2018-02-21T17:23:44.019Z,34.40
2018-02-21T17:26:12.298Z,34.60
2018-02-21T17:28:40.649Z,34.50
2018-02-21T17:31:08.940Z,34.60
2018-02-21T17:33:37.576Z,34.60
2018-02-21T17:36:06.619Z,35.30
2018-02-21T17:38:35.661Z,34.80
2018-02-21T17:41:10.590Z,35.00
2018-02-21T17:43:39.149Z,34.90
2018-02-21T17:46:07.453Z,35.00
2018-02-21T17:48:35.729Z,35.20
2018-02-21T17:51:04.068Z,35.20
2018-02-21T17:53:32.371Z,35.30
2018-02-21T17:56:00.717Z,36.00
2018-02-21T17:58:29.014Z,35.40
2018-02-21T18:00:57.388Z,35.50
2018-02-21T18:03:25.715Z,35.60
2018-02-21T18:05:55.414Z,35.70
2018-02-21T18:08:24.506Z,35.80
2018-02-21T18:10:52.810Z,35.80
2018-02-21T18:13:21.910Z,35.80
2018-02-21T18:15:50.261Z,35.90
2018-02-21T18:18:19.400Z,36.10
2018-02-21T18:20:47.786Z,36.00
2018-02-21T18:23:16.083Z,36.20
2018-02-21T18:25:45.121Z,36.30
2018-02-21T18:28:13.874Z,36.40
2018-02-21T18:30:42.248Z,36.70
2018-02-21T18:33:10.513Z,36.80
2018-02-21T18:35:38.845Z,36.70
2018-02-21T18:38:07.112Z,36.70
2018-02-21T18:40:35.426Z,36.70
2018-02-21T18:43:04.496Z,36.90
2018-02-21T18:45:32.780Z,36.90
2018-02-21T18:48:02.768Z,37.40
2018-02-21T18:50:31.522Z,37.00
2018-02-21T18:53:00.302Z,37.10
2018-02-21T18:55:29.708Z,37.00
2018-02-21T18:57:58.034Z,37.00
2018-02-21T19:00:26.363Z,37.00
2018-02-21T19:02:54.731Z,37.00
2018-02-21T19:05:23.315Z,37.00
2018-02-21T19:07:51.891Z,37.00
2018-02-21T19:10:20.172Z,37.50
2018-02-21T19:12:48.829Z,37.10
2018-02-21T19:15:17.195Z,37.10
2018-02-21T19:17:45.788Z,37.20
2018-02-21T19:20:14.071Z,37.30
2018-02-21T19:22:43.430Z,37.30
2018-02-21T19:25:11.868Z,37.40
2018-02-21T19:27:40.469Z,37.40
2018-02-21T19:30:08.876Z,37.50
2018-02-21T19:32:37.158Z,37.50
2018-02-21T19:35:05.461Z,37.40
2018-02-21T19:37:33.816Z,37.60
2018-02-21T19:40:02.476Z,37.80
2018-02-21T19:42:31.544Z,37.70
2018-02-21T19:44:59.809Z,37.70
2018-02-21T19:47:28.140Z,37.80
2018-02-21T19:49:57.247Z,37.70
2018-02-21T19:52:25.551Z,37.70
2018-02-21T19:54:54.394Z,37.80
2018-02-21T19:57:23.455Z,38.00
2018-02-21T19:59:51.767Z,38.00
2018-02-21T20:02:20.135Z,37.90
2018-02-21T20:04:48.466Z,38.00
2018-02-21T20:07:20.325Z,38.00
2018-02-21T20:09:48.625Z,38.00
2018-02-21T20:12:17.383Z,38.10
2018-02-21T20:14:45.685Z,38.10
2018-02-21T20:17:13.956Z,38.20
2018-02-21T20:19:42.279Z,38.30
2018-02-21T20:22:10.871Z,38.20
2018-02-21T20:24:39.315Z,38.30
2018-02-21T20:27:07.649Z,38.40
2018-02-21T20:29:37.376Z,38.40
2018-02-21T20:32:05.704Z,38.50
2018-02-21T20:34:34.054Z,38.60
2018-02-21T20:37:02.447Z,39.20
2018-02-21T20:39:30.739Z,38.50
2018-02-21T20:42:00.194Z,38.60
2018-02-21T20:44:28.532Z,38.70
2018-02-21T20:46:56.983Z,38.70
2018-02-21T20:49:25.306Z,38.80
2018-02-21T20:51:54.415Z,38.80
2018-02-21T20:54:24.371Z,38.80
2018-02-21T20:56:53.243Z,38.90
2018-02-21T20:59:21.572Z,38.90
2018-02-21T21:01:50.472Z,38.90
2018-02-21T21:04:18.779Z,39.00
2018-02-21T21:06:47.114Z,39.00
2018-02-21T21:09:15.415Z,39.00
2018-02-21T21:11:44.290Z,39.00
2018-02-21T21:14:12.890Z,39.10
2018-02-21T21:16:42.222Z,39.10
2018-02-21T21:19:10.525Z,39.20
2018-02-21T21:21:39.098Z,39.20
2018-02-21T21:24:07.386Z,39.40
2018-02-21T21:26:36.070Z,39.30
2018-02-21T21:29:04.624Z,39.30
2018-02-21T21:31:33.744Z,39.40
2018-02-21T21:34:02.030Z,39.40
2018-02-21T21:36:30.672Z,39.50
2018-02-21T21:39:00.040Z,39.50
2018-02-21T21:41:28.524Z,39.50
2018-02-21T21:43:56.838Z,39.70
2018-02-21T21:46:25.393Z,39.60
2018-02-21T21:48:53.883Z,39.60
2018-02-21T21:51:23.153Z,39.70
2018-02-21T21:53:52.033Z,39.70
2018-02-21T21:56:20.365Z,39.80
2018-02-21T21:58:48.648Z,39.80
2018-02-21T22:01:16.931Z,39.90
2018-02-21T22:03:45.275Z,40.00
2018-02-21T22:06:13.573Z,40.00
2018-02-21T22:08:41.854Z,39.90
2018-02-21T22:11:10.451Z,40.00
2018-02-21T22:13:38.947Z,40.00
2018-02-21T22:16:07.217Z,40.20
2018-02-21T22:18:37.177Z,40.10
2018-02-21T22:21:05.522Z,40.10
2018-02-21T22:23:34.013Z,40.10
2018-02-21T22:26:02.321Z,40.20
2018-02-21T22:28:30.869Z,40.30
2018-02-21T22:30:59.134Z,40.40
2018-02-21T22:33:28.179Z,40.50
2018-02-21T22:35:56.478Z,40.40
2018-02-21T22:38:24.963Z,40.50
2018-02-21T22:40:53.327Z,40.50
2018-02-21T22:43:21.589Z,40.50
2018-02-21T22:45:50.273Z,40.60
2018-02-21T22:48:19.319Z,40.70
2018-02-21T22:50:49.104Z,40.80
2018-02-21T22:53:17.373Z,40.70
2018-02-21T22:55:46.560Z,40.80
2018-02-21T22:58:14.850Z,40.90
2018-02-21T23:00:43.134Z,40.90
2018-02-21T23:03:11.434Z,40.90
2018-02-21T23:05:40.057Z,41.00
2018-02-21T23:08:08.715Z,41.60
2018-02-21T23:10:38.555Z,41.10
2018-02-21T23:13:11.858Z,41.10
2018-02-21T23:15:41.583Z,41.30
2018-02-21T23:18:09.934Z,41.20
2018-02-21T23:20:39.591Z,41.40
2018-02-21T23:23:07.835Z,41.40
2018-02-21T23:25:36.152Z,41.30
2018-02-21T23:28:05.103Z,41.20
2018-02-21T23:30:33.901Z,41.30
2018-02-21T23:33:02.231Z,41.30
2018-02-21T23:35:30.762Z,41.40
2018-02-21T23:37:59.049Z,41.40
2018-02-21T23:40:28.219Z,41.40
2018-02-21T23:42:56.531Z,41.40
2018-02-21T23:45:24.796Z,41.50
2018-02-21T23:47:53.361Z,41.50
2018-02-21T23:50:21.637Z,41.60
2018-02-21T23:52:49.910Z,41.60
2018-02-21T23:55:18.210Z,41.70
2018-02-21T23:57:46.504Z,41.70
